• Join FlightAware (Why Join?)
  • Login
  • US Flag 
01:10PM EST


 

Airport Tracker/Info


-or-


 

Live Flight TrackerFlight Track Log ✈ DAL1981 ✈ 30-Apr-2013 ✈ KALB - KATL

Flight Track Log - Related Links

Times and Time Zones

All times are in EDT time to prevent confusion due to time zone crossing. See the DAL1981 flight status page for this flight to view local times or setup timezone preferences in your user account.

Time Position Orientation Groundspeed Altitude Reporting Facility
EDT Latitude Longitude Course Direction KTS MPH feet Rate Location/Type
06:11AM 42.7631 -73.8089 180° South 149 171 1,100  Level Boston Center
06:12AM 42.7964 -73.8097 359° North 202 232 2,100 3,000 Climbing Boston Center
06:13AM 42.8850 -73.8908 326° Northwest 270 311 7,600 3,120 Climbing Boston Center
06:14AM 42.5046 -74.1437 200° South  Level Estimated
06:14AM 42.9339 -73.9772 308° West 276 318 10,100  Level Boston Center
06:15AM 42.4229 -74.2571 198° South  Level Estimated
06:15AM 42.9806 -74.0692 305° West 374 430 13,800  Level Boston Center
06:16AM 42.3410 -74.3701 180° South  Level Estimated
06:16AM 42.9561 -74.1764 253° West 432 497 16,200  Level Boston Center
06:17AM 42.8803 -74.2253 205° Southwest 408 470 18,600 2,160 Climbing Boston Center
06:18AM 42.7864 -74.2394 186° South 381 438 20,600 2,040 Climbing Boston Center
06:19AM 42.6867 -74.2111 168° South 350 403 22,700 1,860 Climbing Boston Center
06:20AM 42.6058 -74.1778 163° South 355 409 24,400 1,860 Climbing Boston Center
06:21AM 42.4817 -74.1292 164° South 373 429 26,500 1,800 Climbing Boston Center
06:22AM 42.3758 -74.0869 164° South 387 445 28,000 1,200 Climbing Boston Center
06:23AM 42.2619 -74.0475 166° South 401 461 28,900 780 Climbing Boston Center
06:24AM 42.1369 -74.0389 177° South 433 498 29,600 840 Climbing Boston Center
06:25AM 42.0181 -74.0497 184° South 462 532 30,700 1,440 Climbing Boston Center
06:26AM 41.8761 -74.0572 182° South 467 537 32,500 1,440 Climbing Boston Center
06:29AM 41.6050 -74.0697 182° South 472 543 35,500 1,020 Climbing New York Center
06:30AM 41.4861 -74.0750 182° South 453 521 36,000 240 Climbing New York Center
06:31AM 41.3628 -74.0853 184° South 442 509 36,000  Level New York Center
06:32AM 41.2397 -74.0931 183° South 442 509 36,000  Level New York Center
06:33AM 41.1219 -74.1342 195° South 448 516 36,000  Level New York Center
06:34AM 41.0411 -74.2678 231° Southwest 408 470 36,000 -60 Level New York Center
06:35AM 40.9647 -74.3847 229° Southwest 413 475 35,900  Descending New York Center
06:36AM 40.8922 -74.5042 231° Southwest 424 488 36,000  Climbing New York Center
06:37AM 40.8156 -74.6233 230° Southwest 424 488 36,000  Level New York Center
06:38AM 40.7428 -74.7425 231° Southwest 429 494 36,000  Level New York Center
06:39AM 40.6700 -74.8614 231° Southwest 429 494 36,000  Level New York Center
06:40AM 40.5928 -74.9797 229° Southwest 429 494 36,000  Level New York Center
06:41AM 40.5219 -75.0956 231° Southwest 429 494 36,000  Level New York Center
06:42AM 40.4447 -75.2136 229° Southwest 429 494 36,000  Level New York Center
06:43AM 40.3692 -75.3339 231° Southwest 429 494 36,000  Level New York Center
06:44AM 40.2981 -75.4489 231° Southwest 429 494 36,000  Level New York Center
06:45AM 40.2244 -75.5664 231° Southwest 429 494 36,000  Level New York Center
06:46AM 40.1586 -75.6950 236° Southwest 429 494 36,000  Level New York Center
06:47AM 40.0972 -75.8181 237° Southwest 424 488 36,000  Level New York Center
06:48AM 40.0336 -75.9408 236° Southwest 419 482 36,000  Level New York Center
06:49AM 39.9719 -76.0636 237° Southwest 419 482 36,000  Level New York Center
06:50AM 39.9058 -76.1858 235° Southwest 419 482 36,000  Level New York Center
06:51AM 39.7942 -76.4044 236° Southwest 431 496 36,000  Level Washington Center
06:52AM 39.7289 -76.5250 235° Southwest 426 490 36,000  Level Washington Center
06:53AM 39.6675 -76.6456 237° Southwest 421 484 36,000  Level Washington Center
06:54AM 39.6036 -76.7686 236° Southwest 421 484 36,000  Level Washington Center
06:55AM 39.5400 -76.8886 236° Southwest 421 484 36,000  Level Washington Center
06:56AM 39.4700 -77.0028 232° Southwest 421 484 36,000  Level Washington Center
06:57AM 39.3814 -77.0978 220° Southwest 411 473 36,000  Level Washington Center
06:58AM 39.3072 -77.1742 219° Southwest 416 479 36,000  Level Washington Center
06:59AM 39.2017 -77.2842 219° Southwest 416 479 36,000  Level Washington Center
07:00AM 39.1106 -77.3786 219° Southwest 426 490 36,000  Level Washington Center
07:01AM 39.0217 -77.4672 218° Southwest 426 490 36,000  Level Washington Center
07:02AM 38.9306 -77.5636 219° Southwest 426 490 36,000  Level Washington Center
07:03AM 38.8414 -77.6544 218° Southwest 426 490 36,000  Level Washington Center
07:04AM 38.7567 -77.7425 219° Southwest 426 490 36,000  Level Washington Center
07:05AM 38.6675 -77.8331 218° Southwest 432 497 36,000  Level Washington Center
07:06AM 38.5903 -77.9450 229° Southwest 418 481 36,000  Level Washington Center
07:07AM 38.5231 -78.0622 234° Southwest 413 475 36,000  Level Washington Center
07:08AM 38.4539 -78.1794 233° Southwest 418 481 36,000  Level Washington Center
07:09AM 38.3867 -78.2961 234° Southwest 418 481 36,000  Level Washington Center
07:10AM 38.3175 -78.4128 233° Southwest 418 481 36,000  Level Washington Center
07:11AM 38.2456 -78.5422 235° Southwest 418 481 36,000  Level Washington Center
07:12AM 38.1758 -78.6611 233° Southwest 418 481 36,000  Level Washington Center
07:13AM 38.1061 -78.7769 233° Southwest 418 481 36,000  Level Washington Center
07:14AM 38.0406 -78.8797 231° Southwest 424 488 36,000  Level Washington Center
07:15AM 37.9706 -78.9978 233° Southwest 429 494 36,000  Level Washington Center
07:16AM 37.8964 -79.1153 231° Southwest 429 494 36,000  Level Washington Center
07:17AM 37.8092 -79.2375 228° Southwest 434 499 36,000  Level Washington Center
07:18AM 37.7328 -79.3442 228° Southwest 434 499 36,000  Level Washington Center
07:19AM 37.6500 -79.4556 227° Southwest 434 499 36,000  Level Washington Center
07:20AM 37.5781 -79.5539 227° Southwest 434 499 36,000  Level Washington Center
07:21AM 37.4886 -79.6722 226° Southwest 429 494 36,000  Level Washington Center
07:22AM 37.4072 -79.7883 229° Southwest 437 503 36,000  Level Washington Center
07:24AM 37.2750 -79.9625 226° Southwest 429 494 36,000  Level Atlanta Center
07:25AM 37.1972 -80.0681 227° Southwest 429 494 36,000  Level Atlanta Center
07:26AM 37.1092 -80.1869 227° Southwest 429 494 36,000  Level Atlanta Center
07:27AM 37.0292 -80.2922 226° Southwest 429 494 36,000  Level Atlanta Center
07:28AM 36.9511 -80.4025 228° Southwest 429 494 36,000  Level Atlanta Center
07:29AM 36.8708 -80.5075 226° Southwest 429 494 36,000  Level Atlanta Center
07:30AM 36.7986 -80.6064 228° Southwest 429 494 36,000  Level Atlanta Center
07:31AM 36.7122 -80.7217 227° Southwest 429 494 36,000  Level Atlanta Center
07:32AM 36.6314 -80.8283 227° Southwest 422 486 36,000  Level Atlanta Center
07:33AM 36.5508 -80.9350 227° Southwest 429 494 36,000  Level Atlanta Center
07:34AM 36.4681 -81.0442 227° Southwest 435 501 36,000  Level Atlanta Center
07:35AM 36.3872 -81.1503 227° Southwest 428 493 36,000  Level Atlanta Center
07:36AM 36.3064 -81.2589 227° Southwest 428 493 36,000  Level Atlanta Center
07:37AM 36.2253 -81.3644 226° Southwest 433 498 36,000  Level Atlanta Center
07:38AM 36.1419 -81.4753 227° Southwest 433 498 36,000  Level Atlanta Center
07:39AM 36.0608 -81.5831 227° Southwest 433 498 36,000  Level Atlanta Center
07:40AM 35.9875 -81.6803 227° Southwest 433 498 36,000  Level Atlanta Center
07:41AM 35.9042 -81.7853 226° Southwest 433 498 36,000  Level Atlanta Center
07:42AM 35.8206 -81.8928 226° Southwest 433 498 36,000  Level Atlanta Center
07:43AM 35.7347 -81.9997 225° Southwest 433 498 36,000 -120 Level Atlanta Center
07:44AM 35.6531 -82.1042 226° Southwest 433 498 35,800 -600 Descending Atlanta Center
07:45AM 35.5669 -82.2108 225° Southwest 433 498 34,900 -1,080 Descending Atlanta Center
07:46AM 35.4786 -82.3097 222° Southwest 433 498 33,700 -1,140 Descending Atlanta Center
07:47AM 35.3883 -82.4133 223° Southwest 444 511 32,700 -840 Descending Atlanta Center
07:48AM 35.2978 -82.5169 223° Southwest 444 511 32,100 -660 Descending Atlanta Center
07:49AM 35.2072 -82.6178 222° Southwest 444 511 31,400 -900 Descending Atlanta Center
07:50AM 35.1186 -82.7133 221° Southwest 439 505 30,400 -960 Descending Atlanta Center
07:51AM 35.0319 -82.8111 223° Southwest 439 505 29,500 -900 Descending Atlanta Center
07:52AM 34.9431 -82.9086 222° Southwest 440 506 28,700 -1,020 Descending Atlanta Center
07:53AM 34.8481 -83.0111 222° Southwest 426 490 27,500 -1,140 Descending Atlanta Center
07:54AM 34.7611 -83.1058 222° Southwest 426 490 26,500 -1,020 Descending Atlanta Center
07:55AM 34.6806 -83.1950 222° Southwest 414 476 25,500 -960 Descending Atlanta Center
07:56AM 34.5997 -83.2892 224° Southwest 407 468 24,600 -1,560 Descending Atlanta Center
07:57AM 34.5147 -83.3783 221° Southwest 402 463 22,400 -2,220 Descending Atlanta Center
07:58AM 34.4419 -83.4569 222° Southwest 402 463 20,200 -2,460 Descending Atlanta Center
07:59AM 34.3631 -83.5456 223° Southwest 402 463 17,500 -2,880 Descending Atlanta Center
08:00AM 34.2819 -83.6367 223° Southwest 397 457 14,500 -1,800 Descending Atlanta Center
08:01AM 34.2008 -83.7197 220° Southwest 392 451 14,000 -300 Descending Atlanta Center
08:02AM 34.1217 -83.8081 223° Southwest 392 451 14,000  Level Atlanta Center
08:03AM 34.0333 -83.9000 221° Southwest 387 445 14,000 -660 Level Atlanta TRACON
08:04AM 33.9667 -84.0000 231° Southwest 383 441 12,800 -1,380 Descending Atlanta TRACON
08:05AM 33.9000 -84.1000 231° Southwest 372 428 11,400 -960 Descending Atlanta TRACON
08:06AM 33.8500 -84.1833 234° Southwest 359 413 11,000 -240 Descending Atlanta TRACON
08:07AM 33.8000 -84.2500 228° Southwest 330 380 11,000 -60 Level Atlanta TRACON
08:08AM 33.7333 -84.3333 226° Southwest 306 352 10,900 -660 Descending Atlanta TRACON
08:09AM 33.7333 -84.4333 270° West 292 336 9,700 -1,380 Descending Atlanta TRACON
08:10AM 33.7333 -84.5333 270° West 273 314 8,200 -1,680 Descending Atlanta TRACON
08:11AM 33.7333 -84.6167 270° West 271 312 6,400 -1,740 Descending Atlanta TRACON
08:12AM 33.7333 -84.7000 270° West 270 311 5,000 -780 Descending Atlanta TRACON
08:13AM 33.7333 -84.7833 270° West 264 304 5,000  Level Atlanta TRACON
08:14AM 33.7000 -84.8333 231° Southwest 228 262 5,000  Level Atlanta TRACON
08:14AM 33.6500 -84.8333 180° South 222 255 5,000  Level Atlanta TRACON
08:15AM 33.6500 -84.7500 90° East 222 255 5,000  Level Atlanta TRACON
08:16AM 33.6500 -84.6833 90° East 220 253 5,000  Level Atlanta TRACON